Time;durP1;ratioP1;P1;durP2;ratioP2;P2;SDS_P1;SDS_P2;PMS_P1;PMS_P2;Temp;Humidity;BMP_temperature;BMP_pressure;BME280_temperature;BME280_humidity;BME280_pressure;Samples;Min_cycle;Max_cycle;Signal;HPM_P1;HPM_P2
2022/03/06 00:01:17;;;;;;;37.03;22.27;;;;;;;;;;5077318;28;20209;-65
2022/03/06 00:03:44;;;;;;;41.63;22.33;;;;;;;;;;5077957;28;20408;-64
2022/03/06 00:06:10;;;;;;;33.83;22.47;;;;;;;;;;5077196;28;20581;-64
2022/03/06 00:08:36;;;;;;;35.30;22.33;;;;;;;;;;5059635;28;20423;-64
2022/03/06 00:11:03;;;;;;;40.97;22.43;;;;;;;;;;5076825;28;20436;-63
2022/03/06 00:13:29;;;;;;;35.47;22.90;;;;;;;;;;5076771;28;20223;-64
2022/03/06 00:15:55;;;;;;;37.23;22.10;;;;;;;;;;5077117;28;20470;-63
2022/03/06 00:18:21;;;;;;;38.47;22.83;;;;;;;;;;5077461;28;20416;-64
2022/03/06 00:20:47;;;;;;;35.43;21.07;;;;;;;;;;5077240;28;20202;-64
2022/03/06 00:23:12;;;;;;;35.93;22.80;;;;;;;;;;5077165;28;20412;-64
2022/03/06 00:25:38;;;;;;;35.77;22.73;;;;;;;;;;5077114;28;20205;-63
2022/03/06 00:28:04;;;;;;;36.97;22.63;;;;;;;;;;5076968;28;20540;-65
2022/03/06 00:30:30;;;;;;;32.10;20.17;;;;;;;;;;5076876;28;20190;-65
2022/03/06 00:32:56;;;;;;;34.40;21.53;;;;;;;;;;5076599;28;20178;-64
2022/03/06 00:35:24;;;;;;;35.60;21.80;;;;;;;;;;5076473;28;20263;-64
2022/03/06 00:37:50;;;;;;;33.00;21.33;;;;;;;;;;5076755;28;20267;-63
2022/03/06 00:40:16;;;;;;;34.80;20.43;;;;;;;;;;5076704;28;20923;-63
2022/03/06 00:42:42;;;;;;;37.00;21.07;;;;;;;;;;5076776;28;20246;-65
2022/03/06 00:45:08;;;;;;;33.87;20.93;;;;;;;;;;5058574;28;20271;-64
2022/03/06 00:47:34;;;;;;;38.90;21.73;;;;;;;;;;5076675;28;20194;-64
2022/03/06 00:50:02;;;;;;;29.63;20.20;;;;;;;;;;5076762;28;20404;-64
2022/03/06 00:52:28;;;;;;;36.73;21.43;;;;;;;;;;5058480;28;20245;-65
2022/03/06 00:54:54;;;;;;;31.63;20.70;;;;;;;;;;5076578;28;20443;-65
2022/03/06 00:57:20;;;;;;;35.90;20.77;;;;;;;;;;5076170;28;20423;-63
2022/03/06 00:59:46;;;;;;;31.07;20.07;;;;;;;;;;5076462;28;20178;-63
2022/03/06 01:02:12;;;;;;;33.90;22.03;;;;;;;;;;5058206;28;20239;-64
2022/03/06 01:04:38;;;;;;;34.97;22.93;;;;;;;;;;5075958;28;20283;-64
2022/03/06 01:07:04;;;;;;;36.50;21.53;;;;;;;;;;5058542;28;20182;-64
2022/03/06 01:09:30;;;;;;;32.47;21.17;;;;;;;;;;5058281;28;20953;-64
2022/03/06 01:11:56;;;;;;;33.47;21.17;;;;;;;;;;5075570;28;20557;-64
2022/03/06 01:14:22;;;;;;;35.67;20.10;;;;;;;;;;5057701;28;20664;-64
2022/03/06 01:16:48;;;;;;;35.00;21.33;;;;;;;;;;5075103;28;20182;-65
2022/03/06 01:19:14;;;;;;;36.73;21.50;;;;;;;;;;5057580;28;20408;-64
2022/03/06 01:21:40;;;;;;;36.13;22.30;;;;;;;;;;5075912;28;20236;-64
2022/03/06 01:24:06;;;;;;;33.93;21.10;;;;;;;;;;5057976;28;20204;-63
2022/03/06 01:26:32;;;;;;;31.20;19.73;;;;;;;;;;5075694;28;20503;-65
2022/03/06 01:28:58;;;;;;;34.27;21.03;;;;;;;;;;5075434;28;20413;-64
2022/03/06 01:31:24;;;;;;;36.27;21.87;;;;;;;;;;5075219;28;20193;-64
2022/03/06 01:33:50;;;;;;;32.97;21.27;;;;;;;;;;5075220;28;20185;-65
2022/03/06 01:36:16;;;;;;;36.80;20.30;;;;;;;;;;5057233;28;20181;-64
2022/03/06 01:38:42;;;;;;;35.53;20.10;;;;;;;;;;5057465;28;20196;-63
2022/03/06 01:41:08;;;;;;;34.87;20.83;;;;;;;;;;5075032;28;20690;-64
2022/03/06 01:43:34;;;;;;;34.17;21.37;;;;;;;;;;5075132;28;20427;-63
2022/03/06 01:46:00;;;;;;;34.70;21.20;;;;;;;;;;5074514;28;20193;-64
2022/03/06 01:48:25;;;;;;;33.97;21.30;;;;;;;;;;5074131;28;20178;-64
2022/03/06 01:50:52;;;;;;;35.03;21.80;;;;;;;;;;5074154;28;20292;-64
2022/03/06 01:53:17;;;;;;;35.03;19.93;;;;;;;;;;5056508;28;20637;-64
2022/03/06 01:55:44;;;;;;;34.23;20.77;;;;;;;;;;5074377;28;20466;-64
2022/03/06 01:58:11;;;;;;;30.87;20.33;;;;;;;;;;5056804;28;20223;-64
2022/03/06 02:00:39;;;;;;;38.80;21.57;;;;;;;;;;5074455;28;20852;-66
2022/03/06 02:03:06;;;;;;;38.27;21.57;;;;;;;;;;5056347;28;20923;-63
2022/03/06 02:05:32;;;;;;;34.03;21.27;;;;;;;;;;5074254;28;20447;-64
2022/03/06 02:07:58;;;;;;;34.13;21.10;;;;;;;;;;5074155;28;20779;-64
2022/03/06 02:10:24;;;;;;;30.97;20.27;;;;;;;;;;5074566;28;20431;-63
2022/03/06 02:12:50;;;;;;;34.93;21.87;;;;;;;;;;5074571;28;20630;-65
2022/03/06 02:15:17;;;;;;;35.10;21.87;;;;;;;;;;5056258;28;20457;-65
2022/03/06 02:17:43;;;;;;;32.27;19.77;;;;;;;;;;5074244;28;20409;-67
2022/03/06 02:20:20;;;;;;;37.23;21.50;;;;;;;;;;5074634;28;20424;-66
2022/03/06 02:22:47;;;;;;;32.47;20.63;;;;;;;;;;5075041;28;20426;-66
2022/03/06 02:25:13;;;;;;;33.40;20.33;;;;;;;;;;5056136;28;20526;-65
2022/03/06 02:27:39;;;;;;;33.53;19.73;;;;;;;;;;5074258;28;20443;-66
2022/03/06 02:30:06;;;;;;;32.90;21.37;;;;;;;;;;5074361;28;20732;-66
2022/03/06 02:32:33;;;;;;;34.78;24.60;;;;;;;;;;5072944;28;20379;-66
2022/03/06 02:34:58;;;;;;;33.53;20.97;;;;;;;;;;5073929;28;20185;-64
2022/03/06 02:37:24;;;;;;;32.57;20.93;;;;;;;;;;5075631;28;20419;-65
2022/03/06 02:39:50;;;;;;;32.50;20.87;;;;;;;;;;5074024;28;20256;-64
2022/03/06 02:42:24;;;;;;;32.30;21.93;;;;;;;;;;5074230;28;20637;-66
2022/03/06 02:44:50;;;;;;;31.67;19.90;;;;;;;;;;5073654;28;20193;-66
2022/03/06 02:47:16;;;;;;;33.40;21.00;;;;;;;;;;5073488;28;20408;-66
2022/03/06 02:49:42;;;;;;;28.47;19.40;;;;;;;;;;5074027;28;20640;-66
2022/03/06 02:52:09;;;;;;;30.60;20.43;;;;;;;;;;5073446;28;20247;-66
2022/03/06 02:54:36;;;;;;;35.97;21.47;;;;;;;;;;5055313;28;20703;-66
2022/03/06 02:57:03;;;;;;;33.13;20.97;;;;;;;;;;5073265;28;20775;-65
2022/03/06 02:59:28;;;;;;;28.77;20.03;;;;;;;;;;5073851;28;20495;-65
2022/03/06 03:01:55;;;;;;;32.07;21.27;;;;;;;;;;5073277;28;20519;-66
2022/03/06 03:04:21;;;;;;;33.87;21.10;;;;;;;;;;5055477;28;20268;-66
2022/03/06 03:06:51;;;;;;;34.40;21.43;;;;;;;;;;5073615;28;20952;-64
2022/03/06 03:09:19;;;;;;;35.47;20.90;;;;;;;;;;5055633;28;20951;-64
2022/03/06 03:11:46;;;;;;;32.93;21.37;;;;;;;;;;5073400;28;20431;-66
2022/03/06 03:14:12;;;;;;;31.30;21.20;;;;;;;;;;5073744;28;20412;-67
2022/03/06 03:16:39;;;;;;;33.47;20.57;;;;;;;;;;5073591;28;20418;-65
2022/03/06 03:19:05;;;;;;;34.23;20.70;;;;;;;;;;5073093;28;20457;-66
2022/03/06 03:21:31;;;;;;;33.70;21.33;;;;;;;;;;5055189;28;20530;-65
2022/03/06 03:23:57;;;;;;;30.73;20.07;;;;;;;;;;5055908;28;20196;-66
2022/03/06 03:26:22;;;;;;;35.57;20.60;;;;;;;;;;5073317;28;20682;-65
2022/03/06 03:28:48;;;;;;;32.53;19.73;;;;;;;;;;5072950;28;20178;-66
2022/03/06 03:31:14;;;;;;;33.43;20.20;;;;;;;;;;5072996;28;20219;-66
2022/03/06 03:33:40;;;;;;;27.03;18.10;;;;;;;;;;5073256;28;20174;-65
2022/03/06 03:36:06;;;;;;;28.47;18.90;;;;;;;;;;5073048;28;20685;-67
2022/03/06 03:38:33;;;;;;;33.37;21.30;;;;;;;;;;5073464;28;20185;-65
2022/03/06 03:41:01;;;;;;;30.70;19.00;;;;;;;;;;5055193;28;20251;-66
2022/03/06 03:43:27;;;;;;;31.17;19.67;;;;;;;;;;5073005;28;20500;-66
2022/03/06 03:45:53;;;;;;;34.00;21.23;;;;;;;;;;5054876;28;20462;-64
2022/03/06 03:48:19;;;;;;;28.57;19.47;;;;;;;;;;5057788;28;20995;-66
2022/03/06 03:50:45;;;;;;;32.10;19.67;;;;;;;;;;5058500;28;20218;-66
2022/03/06 03:53:11;;;;;;;32.43;20.30;;;;;;;;;;5076703;28;20403;-65
2022/03/06 03:55:37;;;;;;;33.60;20.40;;;;;;;;;;5076503;28;20423;-66
2022/03/06 03:58:03;;;;;;;33.07;21.23;;;;;;;;;;5076768;28;20466;-66
2022/03/06 04:00:29;;;;;;;32.93;21.70;;;;;;;;;;5077008;28;20454;-66
2022/03/06 04:02:55;;;;;;;29.27;19.63;;;;;;;;;;5077008;28;20900;-65
2022/03/06 04:05:21;;;;;;;31.73;21.07;;;;;;;;;;5058984;28;20212;-64
2022/03/06 04:07:47;;;;;;;36.57;21.70;;;;;;;;;;5077295;28;20183;-65
2022/03/06 04:10:13;;;;;;;33.93;21.30;;;;;;;;;;5076720;28;20424;-64
2022/03/06 04:12:39;;;;;;;33.13;22.57;;;;;;;;;;5058860;28;20177;-65
2022/03/06 04:15:05;;;;;;;32.07;22.30;;;;;;;;;;5077222;28;20174;-64
2022/03/06 04:17:31;;;;;;;35.77;22.27;;;;;;;;;;5077080;28;20208;-66
2022/03/06 04:19:57;;;;;;;36.43;23.03;;;;;;;;;;5076335;28;20415;-66
2022/03/06 04:22:23;;;;;;;32.37;22.33;;;;;;;;;;5077093;28;20423;-66
2022/03/06 04:24:49;;;;;;;32.37;21.20;;;;;;;;;;5076310;28;20178;-66
2022/03/06 04:27:15;;;;;;;30.70;21.33;;;;;;;;;;5076025;28;20178;-66
2022/03/06 04:29:41;;;;;;;35.23;22.33;;;;;;;;;;5077631;28;20182;-65
2022/03/06 04:32:07;;;;;;;37.70;23.03;;;;;;;;;;5059560;28;20583;-65
2022/03/06 04:34:33;;;;;;;35.87;23.43;;;;;;;;;;5058321;28;20662;-66
2022/03/06 04:36:59;;;;;;;35.60;21.67;;;;;;;;;;5057744;28;20416;-66
2022/03/06 04:39:25;;;;;;;34.93;21.40;;;;;;;;;;5057618;28;20181;-65
2022/03/06 04:41:51;;;;;;;33.93;21.43;;;;;;;;;;5057710;28;20282;-66
2022/03/06 04:44:17;;;;;;;34.60;22.33;;;;;;;;;;5075582;28;20447;-65
2022/03/06 04:46:43;;;;;;;32.60;20.70;;;;;;;;;;5075427;28;20255;-65
2022/03/06 04:49:09;;;;;;;31.27;20.63;;;;;;;;;;5057569;28;20239;-65
2022/03/06 04:51:35;;;;;;;33.50;21.63;;;;;;;;;;5075236;28;20930;-66
2022/03/06 04:54:02;;;;;;;32.33;20.67;;;;;;;;;;5075544;28;20939;-65
2022/03/06 04:56:29;;;;;;;30.77;20.50;;;;;;;;;;5075526;28;20412;-65
2022/03/06 04:58:55;;;;;;;33.30;21.70;;;;;;;;;;5075025;28;20807;-66
2022/03/06 05:01:21;;;;;;;32.80;20.93;;;;;;;;;;5058687;28;20464;-65
2022/03/06 05:03:47;;;;;;;35.37;21.07;;;;;;;;;;5075449;28;20554;-66
2022/03/06 05:06:14;;;;;;;29.50;20.47;;;;;;;;;;5075291;28;20197;-66
2022/03/06 05:08:39;;;;;;;32.83;20.50;;;;;;;;;;5075329;28;20428;-65
2022/03/06 05:11:05;;;;;;;31.00;19.37;;;;;;;;;;5075669;28;20481;-64
2022/03/06 05:13:31;;;;;;;30.87;20.47;;;;;;;;;;5075477;28;20174;-65
2022/03/06 05:15:57;;;;;;;31.37;19.57;;;;;;;;;;5057177;28;20662;-65
2022/03/06 05:18:23;;;;;;;31.63;19.63;;;;;;;;;;5075118;28;20638;-66
2022/03/06 05:20:49;;;;;;;32.10;20.37;;;;;;;;;;5075074;28;20248;-64
2022/03/06 05:23:17;;;;;;;31.33;20.03;;;;;;;;;;5075394;28;20188;-66
2022/03/06 05:25:43;;;;;;;30.47;19.93;;;;;;;;;;5057136;28;20204;-65
2022/03/06 05:28:09;;;;;;;33.63;19.87;;;;;;;;;;5075250;28;20412;-66
2022/03/06 05:30:35;;;;;;;27.80;19.03;;;;;;;;;;5075421;28;20430;-65
2022/03/06 05:33:02;;;;;;;29.83;18.27;;;;;;;;;;5075736;28;20408;-66
2022/03/06 05:35:27;;;;;;;29.30;19.27;;;;;;;;;;5057606;28;20416;-65
2022/03/06 05:37:53;;;;;;;27.40;19.43;;;;;;;;;;5075704;28;20751;-66
2022/03/06 05:40:19;;;;;;;27.87;19.17;;;;;;;;;;5076507;28;20198;-65
2022/03/06 05:42:45;;;;;;;33.17;19.60;;;;;;;;;;5075923;28;20185;-65
2022/03/06 05:45:11;;;;;;;31.97;19.60;;;;;;;;;;5056386;28;20276;-65
2022/03/06 05:47:37;;;;;;;28.10;18.80;;;;;;;;;;5074447;28;20629;-65
2022/03/06 05:50:05;;;;;;;27.00;18.63;;;;;;;;;;5056259;28;20432;-67
2022/03/06 05:52:31;;;;;;;28.03;18.63;;;;;;;;;;5056291;28;20826;-64
2022/03/06 05:54:57;;;;;;;29.20;19.37;;;;;;;;;;5056350;28;20503;-66
2022/03/06 05:57:24;;;;;;;26.87;19.17;;;;;;;;;;5056333;28;20411;-66
2022/03/06 05:59:50;;;;;;;30.23;18.60;;;;;;;;;;5074252;28;20507;-66
2022/03/06 06:02:16;;;;;;;27.67;18.00;;;;;;;;;;5056212;28;20438;-65
2022/03/06 06:04:42;;;;;;;29.23;19.20;;;;;;;;;;5074095;28;20412;-65
2022/03/06 06:07:09;;;;;;;29.97;18.47;;;;;;;;;;5074031;28;20469;-66
2022/03/06 06:09:35;;;;;;;27.13;18.37;;;;;;;;;;5073355;28;20414;-67
2022/03/06 06:12:01;;;;;;;23.23;16.47;;;;;;;;;;5074024;28;20435;-66
2022/03/06 06:14:27;;;;;;;28.10;17.83;;;;;;;;;;5074732;28;20896;-66
2022/03/06 06:16:53;;;;;;;24.87;17.13;;;;;;;;;;5056417;28;20523;-64
2022/03/06 06:19:19;;;;;;;28.67;17.60;;;;;;;;;;5056090;28;20249;-65
2022/03/06 06:21:45;;;;;;;25.80;17.93;;;;;;;;;;5055987;28;20212;-65
2022/03/06 06:24:15;;;;;;;27.70;17.80;;;;;;;;;;5074379;28;20492;-65
2022/03/06 06:26:42;;;;;;;25.37;17.77;;;;;;;;;;5073953;28;20855;-66
2022/03/06 06:29:08;;;;;;;25.67;18.17;;;;;;;;;;5055763;28;20421;-65
2022/03/06 06:31:34;;;;;;;23.70;16.47;;;;;;;;;;5073663;28;20434;-65
2022/03/06 06:34:00;;;;;;;28.13;18.17;;;;;;;;;;5073952;28;20417;-65
2022/03/06 06:36:26;;;;;;;24.37;16.73;;;;;;;;;;5074142;28;20457;-63
2022/03/06 06:38:52;;;;;;;24.80;17.43;;;;;;;;;;5073939;28;20192;-66
2022/03/06 06:41:18;;;;;;;22.70;15.47;;;;;;;;;;5073592;28;20420;-66
2022/03/06 06:43:44;;;;;;;24.50;16.87;;;;;;;;;;5055591;28;20427;-66
2022/03/06 06:46:11;;;;;;;26.30;17.33;;;;;;;;;;5073900;28;20323;-65
2022/03/06 06:48:37;;;;;;;25.07;15.87;;;;;;;;;;5074016;28;20412;-65
2022/03/06 06:51:03;;;;;;;25.17;17.57;;;;;;;;;;5073423;28;20458;-63
2022/03/06 06:53:29;;;;;;;22.77;16.47;;;;;;;;;;5055609;28;20423;-66
2022/03/06 06:55:55;;;;;;;24.73;17.57;;;;;;;;;;5073600;28;20415;-66
2022/03/06 06:58:22;;;;;;;21.03;15.13;;;;;;;;;;5073526;28;20556;-66
2022/03/06 07:00:48;;;;;;;24.10;17.10;;;;;;;;;;5070198;22;20230;-61
2022/03/06 07:03:15;;;;;;;24.33;17.17;;;;;;;;;;5055424;28;20448;-61
2022/03/06 07:05:42;;;;;;;26.73;17.17;;;;;;;;;;5055591;28;20832;-61
2022/03/06 07:08:08;;;;;;;24.93;16.83;;;;;;;;;;5073795;28;20495;-62
2022/03/06 07:10:34;;;;;;;23.20;17.13;;;;;;;;;;5055742;28;20500;-61
2022/03/06 07:13:00;;;;;;;25.17;17.53;;;;;;;;;;5055407;28;20422;-62
2022/03/06 07:15:28;;;;;;;24.27;17.10;;;;;;;;;;5055441;28;20184;-62
2022/03/06 07:18:00;;;;;;;24.13;16.77;;;;;;;;;;5074076;28;20266;-62
2022/03/06 07:20:26;;;;;;;24.07;16.83;;;;;;;;;;5055441;28;20449;-62
2022/03/06 07:22:53;;;;;;;24.27;17.40;;;;;;;;;;5077366;28;20448;-62
2022/03/06 07:25:19;;;;;;;22.87;16.63;;;;;;;;;;5077816;28;20512;-62
2022/03/06 07:27:45;;;;;;;26.83;17.03;;;;;;;;;;5078264;28;20416;-62
2022/03/06 07:30:11;;;;;;;21.93;16.73;;;;;;;;;;5077560;28;20822;-62
2022/03/06 07:32:43;;;;;;;28.17;17.93;;;;;;;;;;5077350;28;20189;-62
2022/03/06 07:35:09;;;;;;;22.27;16.83;;;;;;;;;;5077096;28;20872;-61
2022/03/06 07:37:35;;;;;;;20.73;16.30;;;;;;;;;;5059085;28;20424;-62
2022/03/06 07:40:01;;;;;;;24.87;17.57;;;;;;;;;;5077196;28;20939;-62
2022/03/06 07:42:27;;;;;;;22.30;16.17;;;;;;;;;;5059106;28;20606;-62
2022/03/06 07:44:53;;;;;;;23.07;17.00;;;;;;;;;;5077096;28;20269;-61
2022/03/06 07:47:19;;;;;;;24.27;15.47;;;;;;;;;;5059266;28;20178;-61
2022/03/06 07:49:45;;;;;;;27.43;17.17;;;;;;;;;;5076906;28;20174;-62
2022/03/06 07:52:11;;;;;;;21.83;15.40;;;;;;;;;;5076858;28;20180;-61
2022/03/06 07:54:37;;;;;;;23.87;16.93;;;;;;;;;;5076987;28;20184;-62
2022/03/06 07:57:03;;;;;;;22.00;16.43;;;;;;;;;;5058944;28;20272;-62
2022/03/06 07:59:29;;;;;;;24.23;16.77;;;;;;;;;;5058892;28;20192;-61
2022/03/06 08:01:55;;;;;;;25.67;16.57;;;;;;;;;;5076388;28;20970;-62
2022/03/06 08:04:21;;;;;;;23.83;16.83;;;;;;;;;;5058532;28;20420;-62
2022/03/06 08:06:48;;;;;;;25.17;17.33;;;;;;;;;;5076632;28;20455;-62
2022/03/06 08:09:14;;;;;;;23.03;16.43;;;;;;;;;;5076438;28;20170;-62
2022/03/06 08:11:40;;;;;;;25.07;16.80;;;;;;;;;;5076479;28;20505;-62
2022/03/06 08:14:06;;;;;;;23.27;16.03;;;;;;;;;;5076585;28;20825;-62
2022/03/06 08:16:32;;;;;;;25.00;17.77;;;;;;;;;;5076422;28;20265;-62
2022/03/06 08:18:58;;;;;;;23.33;16.93;;;;;;;;;;5076126;28;20503;-62
2022/03/06 08:21:24;;;;;;;22.37;16.77;;;;;;;;;;5058145;28;20643;-62
2022/03/06 08:23:51;;;;;;;20.17;15.93;;;;;;;;;;5058231;28;20557;-61
2022/03/06 08:26:17;;;;;;;24.90;17.93;;;;;;;;;;5076095;28;20204;-61
2022/03/06 08:28:43;;;;;;;21.53;16.70;;;;;;;;;;5058180;28;20470;-62
2022/03/06 08:31:10;;;;;;;22.73;16.33;;;;;;;;;;5076168;28;20429;-62
2022/03/06 08:33:36;;;;;;;23.50;16.77;;;;;;;;;;5075420;28;20634;-62
2022/03/06 08:36:02;;;;;;;22.67;16.93;;;;;;;;;;5076140;28;20913;-62
2022/03/06 08:38:28;;;;;;;23.40;16.70;;;;;;;;;;5075902;28;20504;-61
2022/03/06 08:40:54;;;;;;;23.37;17.53;;;;;;;;;;5076291;28;20241;-61
2022/03/06 08:43:20;;;;;;;22.23;16.47;;;;;;;;;;5057688;28;20665;-62
2022/03/06 08:45:46;;;;;;;24.67;16.93;;;;;;;;;;5075906;28;20202;-61
2022/03/06 08:48:12;;;;;;;24.93;16.10;;;;;;;;;;5075457;28;20231;-61
2022/03/06 08:50:38;;;;;;;22.03;16.20;;;;;;;;;;5075864;28;20712;-61
2022/03/06 08:53:04;;;;;;;23.23;16.77;;;;;;;;;;5057686;28;20210;-61
2022/03/06 08:55:29;;;;;;;22.33;15.73;;;;;;;;;;5075648;28;20200;-62
2022/03/06 08:57:55;;;;;;;22.27;16.17;;;;;;;;;;5075635;28;20220;-62
2022/03/06 09:00:21;;;;;;;22.07;16.03;;;;;;;;;;5075201;28;20263;-62
2022/03/06 09:02:47;;;;;;;19.97;14.50;;;;;;;;;;5075653;28;20228;-63
2022/03/06 09:05:13;;;;;;;24.60;16.03;;;;;;;;;;5075178;28;20205;-62
2022/03/06 09:07:39;;;;;;;21.73;15.77;;;;;;;;;;5075298;28;20174;-62
2022/03/06 09:10:05;;;;;;;20.53;14.97;;;;;;;;;;5075620;28;20670;-62
2022/03/06 09:12:31;;;;;;;22.70;16.40;;;;;;;;;;5075342;28;20174;-62
2022/03/06 09:14:59;;;;;;;22.23;15.97;;;;;;;;;;5075183;28;20412;-61
2022/03/06 09:17:25;;;;;;;17.80;13.50;;;;;;;;;;5075784;28;20500;-61
2022/03/06 09:19:51;;;;;;;22.47;14.83;;;;;;;;;;5075225;28;20411;-61
2022/03/06 09:22:17;;;;;;;20.23;13.67;;;;;;;;;;5074954;28;20174;-62
2022/03/06 09:24:43;;;;;;;19.20;14.23;;;;;;;;;;5075011;28;20170;-61
2022/03/06 09:27:09;;;;;;;22.73;15.23;;;;;;;;;;5075142;28;20408;-62
2022/03/06 09:29:35;;;;;;;20.60;14.60;;;;;;;;;;5074972;28;20170;-63
2022/03/06 09:32:01;;;;;;;19.60;14.47;;;;;;;;;;5074857;28;20557;-62
2022/03/06 09:34:27;;;;;;;18.07;13.50;;;;;;;;;;5074849;28;20174;-62
2022/03/06 09:36:53;;;;;;;18.60;13.90;;;;;;;;;;5057714;28;20189;-62
2022/03/06 09:39:19;;;;;;;18.00;14.00;;;;;;;;;;5056680;28;20178;-62
2022/03/06 09:41:49;;;;;;;23.73;14.23;;;;;;;;;;5074738;28;20224;-62
2022/03/06 09:44:15;;;;;;;18.07;13.97;;;;;;;;;;5073539;28;20555;-61
2022/03/06 09:46:41;;;;;;;20.57;15.13;;;;;;;;;;5056182;28;20213;-62
2022/03/06 09:49:08;;;;;;;21.40;15.70;;;;;;;;;;5056594;28;20670;-62
2022/03/06 09:51:34;;;;;;;20.20;14.97;;;;;;;;;;5074688;28;20193;-62
2022/03/06 09:54:00;;;;;;;18.07;13.93;;;;;;;;;;5075138;28;20629;-62
2022/03/06 09:56:27;;;;;;;20.33;13.57;;;;;;;;;;5074634;28;20184;-61
2022/03/06 09:58:53;;;;;;;19.53;13.73;;;;;;;;;;5074195;28;20174;-62
2022/03/06 10:01:19;;;;;;;18.57;13.70;;;;;;;;;;5073937;28;20591;-62
2022/03/06 10:03:45;;;;;;;18.17;12.40;;;;;;;;;;5074290;28;20223;-62
2022/03/06 10:06:11;;;;;;;17.80;13.73;;;;;;;;;;5074472;28;20585;-61
2022/03/06 10:08:37;;;;;;;17.53;13.90;;;;;;;;;;5074144;28;20642;-61
2022/03/06 10:11:09;;;;;;;23.00;14.27;;;;;;;;;;5073816;28;20186;-62
2022/03/06 10:13:37;;;;;;;17.17;13.10;;;;;;;;;;5074243;28;20177;-62
2022/03/06 10:16:08;;;;;;;16.53;13.13;;;;;;;;;;5074446;28;20205;-62
2022/03/06 10:18:36;;;;;;;15.97;12.43;;;;;;;;;;5073984;28;20182;-61
2022/03/06 10:21:11;;;;;;;16.43;12.73;;;;;;;;;;5055999;28;20577;-61
2022/03/06 10:23:38;;;;;;;19.13;14.10;;;;;;;;;;5074020;28;20184;-62
2022/03/06 10:26:05;;;;;;;18.27;13.97;;;;;;;;;;5073947;28;20575;-62
2022/03/06 10:28:31;;;;;;;20.43;14.17;;;;;;;;;;5074041;28;20182;-62
2022/03/06 10:31:04;;;;;;;24.20;15.43;;;;;;;;;;5074214;28;20205;-62
2022/03/06 10:33:30;;;;;;;16.13;13.13;;;;;;;;;;5056196;28;20178;-62
2022/03/06 10:35:58;;;;;;;17.87;12.67;;;;;;;;;;5074111;28;20268;-62
2022/03/06 10:38:35;;;;;;;15.93;12.77;;;;;;;;;;5074005;28;20170;-62
2022/03/06 10:41:08;;;;;;;17.20;13.20;;;;;;;;;;5074219;28;20197;-62
2022/03/06 10:43:34;;;;;;;18.07;13.87;;;;;;;;;;5074153;28;20635;-62
2022/03/06 10:46:06;;;;;;;17.93;13.00;;;;;;;;;;5074418;28;20197;-62
2022/03/06 10:48:32;;;;;;;18.70;13.07;;;;;;;;;;5076169;28;20173;-62
2022/03/06 10:50:59;;;;;;;17.93;12.67;;;;;;;;;;5058232;28;20707;-61
2022/03/06 10:53:25;;;;;;;17.27;13.37;;;;;;;;;;5074329;28;20174;-61
2022/03/06 10:55:53;;;;;;;17.53;13.23;;;;;;;;;;5074980;28;20212;-61
2022/03/06 10:58:20;;;;;;;18.03;13.47;;;;;;;;;;5074499;28;20202;-62
2022/03/06 11:00:46;;;;;;;16.63;12.60;;;;;;;;;;5074291;28;20213;-62
2022/03/06 11:03:13;;;;;;;15.70;12.50;;;;;;;;;;5074556;28;20670;-62
2022/03/06 11:05:47;;;;;;;19.20;12.67;;;;;;;;;;5056090;28;20201;-61
2022/03/06 11:08:18;;;;;;;15.80;12.67;;;;;;;;;;5074016;28;20282;-61
2022/03/06 11:10:44;;;;;;;14.93;12.20;;;;;;;;;;5074589;28;20243;-62
2022/03/06 11:13:14;;;;;;;15.17;12.00;;;;;;;;;;5073918;28;20587;-61
2022/03/06 11:15:41;;;;;;;15.33;11.67;;;;;;;;;;5055602;28;20186;-61
2022/03/06 11:18:07;;;;;;;14.07;11.17;;;;;;;;;;5055747;28;20652;-61
2022/03/06 11:20:34;;;;;;;14.67;11.20;;;;;;;;;;5073840;28;20198;-61
2022/03/06 11:23:20;;;;;;;14.80;11.33;;;;;;;;;;5074395;28;20178;-61
2022/03/06 11:25:51;;;;;;;15.20;11.70;;;;;;;;;;5073498;28;20312;-63
2022/03/06 11:28:23;;;;;;;13.53;11.47;;;;;;;;;;5055698;28;20181;-61
2022/03/06 11:30:49;;;;;;;15.87;11.23;;;;;;;;;;5073563;28;20197;-62
2022/03/06 11:33:18;;;;;;;16.00;11.23;;;;;;;;;;5073409;28;20181;-62
2022/03/06 11:35:44;;;;;;;14.00;10.10;;;;;;;;;;5074161;28;20182;-63
2022/03/06 11:38:18;;;;;;;11.17;9.37;;;;;;;;;;5073878;28;20186;-63
2022/03/06 11:41:10;;;;;;;13.10;10.27;;;;;;;;;;5073648;28;20718;-62
2022/03/06 11:43:48;;;;;;;13.00;9.63;;;;;;;;;;5071019;28;20310;-62
2022/03/06 11:46:16;;;;;;;12.67;9.53;;;;;;;;;;5076467;28;20197;-62
2022/03/06 11:48:45;;;;;;;11.27;8.53;;;;;;;;;;5074999;28;20601;-63
2022/03/06 11:51:17;;;;;;;13.57;9.90;;;;;;;;;;5056697;28;20197;-63
2022/03/06 11:53:53;;;;;;;12.23;9.40;;;;;;;;;;5074341;28;20174;-63
2022/03/06 11:56:35;;;;;;;13.13;10.43;;;;;;;;;;5083415;28;20174;-64
2022/03/06 11:59:10;;;;;;;13.47;9.93;;;;;;;;;;5086157;28;20231;-62
2022/03/06 12:01:37;;;;;;;15.50;10.43;;;;;;;;;;5085503;28;20701;-63
2022/03/06 12:04:09;;;;;;;15.07;10.53;;;;;;;;;;5077433;28;20186;-62
2022/03/06 12:06:43;;;;;;;12.00;10.70;;;;;;;;;;5055969;28;20771;-62
2022/03/06 12:09:26;;;;;;;12.77;10.00;;;;;;;;;;5083094;28;20211;-64
2022/03/06 12:11:53;;;;;;;15.03;12.00;;;;;;;;;;5058679;28;20220;-62
2022/03/06 12:14:23;;;;;;;13.30;10.27;;;;;;;;;;5076679;28;20630;-62
2022/03/06 12:17:04;;;;;;;13.47;11.17;;;;;;;;;;5058659;28;20631;-62
2022/03/06 12:19:45;;;;;;;12.47;10.10;;;;;;;;;;5076492;28;20199;-62
2022/03/06 12:22:12;;;;;;;13.30;10.13;;;;;;;;;;5076555;28;20646;-62
2022/03/06 12:24:38;;;;;;;13.27;10.93;;;;;;;;;;5058684;28;20190;-63
2022/03/06 12:27:11;;;;;;;14.13;10.57;;;;;;;;;;5076375;28;20197;-62
2022/03/06 12:29:52;;;;;;;15.00;11.63;;;;;;;;;;5058691;28;20182;-62
2022/03/06 12:32:39;;;;;;;14.33;11.13;;;;;;;;;;5076924;28;20169;-62
2022/03/06 12:35:06;;;;;;;14.27;10.77;;;;;;;;;;5058480;28;20180;-63
2022/03/06 12:37:33;;;;;;;13.67;10.13;;;;;;;;;;5042221;28;20173;-62
2022/03/06 12:40:00;;;;;;;14.07;10.97;;;;;;;;;;5076684;28;20634;-64
2022/03/06 12:42:30;;;;;;;15.73;12.40;;;;;;;;;;5075985;28;20248;-63
2022/03/06 12:44:57;;;;;;;15.20;11.97;;;;;;;;;;5075787;28;20204;-62
2022/03/06 12:47:23;;;;;;;16.17;13.50;;;;;;;;;;5057931;28;20181;-62
2022/03/06 12:49:50;;;;;;;15.80;13.27;;;;;;;;;;5075713;28;20208;-62
2022/03/06 12:52:17;;;;;;;15.23;11.83;;;;;;;;;;5057972;28;20232;-62
2022/03/06 12:54:45;;;;;;;16.33;13.13;;;;;;;;;;5076193;28;20165;-63
2022/03/06 12:57:11;;;;;;;15.83;12.33;;;;;;;;;;5075992;28;20178;-62
2022/03/06 12:59:40;;;;;;;13.63;11.27;;;;;;;;;;5075975;28;20192;-62
2022/03/06 13:02:07;;;;;;;14.33;10.90;;;;;;;;;;5075746;28;20259;-62
2022/03/06 13:04:34;;;;;;;15.80;12.43;;;;;;;;;;5075649;28;20185;-62
2022/03/06 13:09:34;;;;;;;16.00;11.03;;;;;;;;;;5055198;28;20247;-66
2022/03/06 13:12:00;;;;;;;12.90;9.60;;;;;;;;;;5055533;28;20170;-66
2022/03/06 13:14:31;;;;;;;13.83;10.30;;;;;;;;;;5055408;28;20634;-66
2022/03/06 13:17:01;;;;;;;14.67;11.17;;;;;;;;;;5037722;28;20228;-66
2022/03/06 13:19:36;;;;;;;13.10;11.00;;;;;;;;;;5035060;28;20722;-66
2022/03/06 13:22:04;;;;;;;14.53;11.73;;;;;;;;;;5035455;28;20169;-66
2022/03/06 13:24:37;;;;;;;13.30;11.60;;;;;;;;;;5034921;28;20191;-65
2022/03/06 13:27:03;;;;;;;9.87;8.00;;;;;;;;;;5017389;28;20648;-65
2022/03/06 13:29:29;;;;;;;15.47;11.87;;;;;;;;;;5035105;28;20192;-65
2022/03/06 13:31:55;;;;;;;11.90;9.83;;;;;;;;;;5034975;28;20181;-65
2022/03/06 13:34:21;;;;;;;13.70;10.00;;;;;;;;;;5035458;28;20178;-66
2022/03/06 13:36:47;;;;;;;12.07;10.13;;;;;;;;;;5035097;28;20179;-65
2022/03/06 13:39:19;;;;;;;13.03;11.27;;;;;;;;;;5017166;28;20233;-65
2022/03/06 13:41:51;;;;;;;13.47;10.40;;;;;;;;;;5017160;28;20186;-66
2022/03/06 13:44:17;;;;;;;11.77;10.50;;;;;;;;;;5034788;28;20175;-66
2022/03/06 13:46:43;;;;;;;12.20;9.97;;;;;;;;;;5034936;28;20206;-65
2022/03/06 13:49:13;;;;;;;12.70;10.30;;;;;;;;;;5034581;28;20195;-66
2022/03/06 13:51:40;;;;;;;12.37;11.07;;;;;;;;;;5016843;28;20558;-66
2022/03/06 13:54:06;;;;;;;11.43;9.80;;;;;;;;;;5017009;28;20643;-66
2022/03/06 13:56:34;;;;;;;12.53;10.50;;;;;;;;;;5034750;28;20632;-63
2022/03/06 13:59:00;;;;;;;13.97;11.10;;;;;;;;;;5016572;28;20697;-66
2022/03/06 14:01:27;;;;;;;12.53;10.70;;;;;;;;;;5034982;28;20215;-66
2022/03/06 14:04:06;;;;;;;11.60;10.00;;;;;;;;;;5035117;28;20175;-66
2022/03/06 14:06:33;;;;;;;11.13;9.47;;;;;;;;;;5037546;28;20194;-64
2022/03/06 14:08:59;;;;;;;10.07;8.03;;;;;;;;;;5037788;28;20245;-66
2022/03/06 14:11:26;;;;;;;13.07;10.33;;;;;;;;;;5043618;28;20174;-66
2022/03/06 14:13:54;;;;;;;10.57;8.87;;;;;;;;;;5020673;28;20587;-66
2022/03/06 14:16:19;;;;;;;9.17;7.87;;;;;;;;;;5034590;28;20186;-65
2022/03/06 14:18:49;;;;;;;11.40;9.63;;;;;;;;;;5034344;28;20285;-65
2022/03/06 14:21:18;;;;;;;10.70;9.37;;;;;;;;;;5016534;28;20652;-66